HomeShort term forecast

Short term forecast

Graphical weather forecast for the next 48 hours for Montreal:
Short term forecast
This weather forecast is automatically refreshed every 3 hours.

Hourly Experimental Forecast for the next 48 hours

Overall summary: Rain tomorrow afternoon.

 Date & Hour   Temp   Feel   Baro   Hum   Speed & Bearing   Wind Gust   Precip.%   Precip.   Visibility   Cloud cover   Conditions 
 22/07/2018 - 01:00  21.8°C  21.8°C  1017.4 hPa  58%  11.7 km/h   27.2 km/h  0%  --  16.1km  73%  Mostly Cloudy 
 22/07/2018 - 02:00  20.8°C  20.8°C  1017.5 hPa  61%  11.7 km/h   28.0 km/h  0%  --  16.1km  71%  Mostly Cloudy 
 22/07/2018 - 03:00  19.5°C  19.5°C  1017.7 hPa  64%  10.5 km/h   24.7 km/h  0%  --  16.1km  61%  Mostly Cloudy 
 22/07/2018 - 04:00  18.2°C  18.2°C  1017.7 hPa  69%  9.0 km/h   20.9 km/h  1%  0.01 mm/h  16.1km  63%  Mostly Cloudy 
 22/07/2018 - 05:00  17.1°C  17.1°C  1017.6 hPa  73%  8.2 km/h   19.7 km/h  1%  0.04 mm/h  16.1km  66%  Mostly Cloudy 
 22/07/2018 - 06:00  16.8°C  16.8°C  1017.7 hPa  74%  8.3 km/h   19.4 km/h  1%  0.01 mm/h  16.1km  72%  Mostly Cloudy 
 22/07/2018 - 07:00  17.8°C  17.8°C  1017.7 hPa  71%  9.7 km/h   21.4 km/h  1%  0.01 mm/h  16.1km  90%  Mostly Cloudy 
 22/07/2018 - 08:00  19.0°C  19.0°C  1017.7 hPa  64%  11.1 km/h   21.7 km/h  0%  --  16.1km  92%  Mostly Cloudy 
 22/07/2018 - 09:00  19.7°C  19.7°C  1017.6 hPa  59%  13.0 km/h   23.4 km/h  2%  0.02 mm/h  16.1km  92%  Mostly Cloudy 
 22/07/2018 - 10:00  20.4°C  20.4°C  1017.5 hPa  57%  15.2 km/h   25.9 km/h  4%  0.05 mm/h  16.1km  98%  Overcast 
 22/07/2018 - 11:00  20.7°C  20.7°C  1017.2 hPa  60%  17.2 km/h   30.9 km/h  17%  0.43 mm/h  16.1km  99%  Overcast 
 22/07/2018 - 12:00  19.7°C  19.7°C  1017.0 hPa  72%  18.0 km/h   34.1 km/h  35%  1.09 mm/h  16.1km  91%  Light Rain 
 22/07/2018 - 13:00  19.1°C  19.2°C  1016.7 hPa  82%  19.1 km/h   36.5 km/h  54%  2.64 mm/h  10.8km  98%  Rain 
 22/07/2018 - 14:00  19.8°C  20.1°C  1016.5 hPa  85%  19.5 km/h   37.2 km/h  61%  3.10 mm/h  14.7km  99%  Rain 
 22/07/2018 - 15:00  21.1°C  21.5°C  1015.9 hPa  83%  20.0 km/h   35.7 km/h  57%  2.34 mm/h  14.1km  98%  Rain 
 22/07/2018 - 16:00  23.3°C  23.7°C  1015.5 hPa  78%  19.4 km/h   33.1 km/h  34%  0.52 mm/h  16.1km  95%  Overcast 
 22/07/2018 - 17:00  24.9°C  25.5°C  1015.1 hPa  75%  18.3 km/h   31.8 km/h  8%  0.10 mm/h  16.1km  93%  Mostly Cloudy 
 22/07/2018 - 18:00  25.7°C  26.3°C  1015.1 hPa  74%  16.8 km/h   31.1 km/h  6%  0.05 mm/h  16.1km  94%  Overcast 
 22/07/2018 - 19:00  25.5°C  26.0°C  1015.2 hPa  76%  15.1 km/h   30.3 km/h  6%  0.02 mm/h  16.1km  86%  Mostly Cloudy 
 22/07/2018 - 20:00  24.8°C  25.4°C  1015.5 hPa  79%  13.4 km/h   29.9 km/h  5%  0.02 mm/h  16.1km  68%  Mostly Cloudy 
 22/07/2018 - 21:00  23.9°C  24.5°C  1016.0 hPa  83%  11.9 km/h   30.6 km/h  5%  0.03 mm/h  16.1km  85%  Mostly Cloudy 
 22/07/2018 - 22:00  23.2°C  23.8°C  1016.5 hPa  85%  11.3 km/h   31.9 km/h  5%  0.07 mm/h  16.1km  69%  Mostly Cloudy 
 22/07/2018 - 23:00  22.7°C  23.3°C  1016.9 hPa  87%  11.0 km/h   32.3 km/h  6%  0.11 mm/h  16.1km  59%  Partly Cloudy 
 23/07/2018 - 00:00  22.3°C  22.9°C  1017.0 hPa  89%  10.6 km/h   31.5 km/h  5%  0.15 mm/h  16.1km  58%  Partly Cloudy 
 23/07/2018 - 01:00  22.1°C  22.7°C  1017.2 hPa  89%  10.2 km/h   29.9 km/h  4%  0.19 mm/h  15.6km  62%  Mostly Cloudy 
 23/07/2018 - 02:00  21.8°C  22.4°C  1017.2 hPa  90%  9.7 km/h   28.5 km/h  4%  0.19 mm/h  14.7km  58%  Partly Cloudy 
 23/07/2018 - 03:00  21.4°C  22.0°C  1017.3 hPa  91%  9.3 km/h   27.3 km/h  4%  0.18 mm/h  12.9km  58%  Partly Cloudy 
 23/07/2018 - 04:00  21.0°C  21.6°C  1017.5 hPa  93%  8.6 km/h   26.3 km/h  12%  0.38 mm/h  11.3km  57%  Partly Cloudy 
 23/07/2018 - 05:00  20.9°C  21.5°C  1017.7 hPa  94%  8.3 km/h   25.2 km/h  21%  0.56 mm/h  11.4km  54%  Partly Cloudy 
 23/07/2018 - 06:00  21.1°C  21.7°C  1018.0 hPa  94%  8.3 km/h   24.0 km/h  10%  0.34 mm/h  14.6km  65%  Mostly Cloudy 
 23/07/2018 - 07:00  22.0°C  22.7°C  1018.3 hPa  91%  9.1 km/h   22.8 km/h  3%  0.07 mm/h  16.1km  73%  Mostly Cloudy 
 23/07/2018 - 08:00  23.4°C  24.1°C  1018.6 hPa  86%  10.5 km/h   22.1 km/h  2%  0.01 mm/h  16.1km  88%  Mostly Cloudy 
 23/07/2018 - 09:00  24.6°C  25.3°C  1018.8 hPa  82%  12.4 km/h   22.6 km/h  2%  0.01 mm/h  16.1km  90%  Mostly Cloudy 
 23/07/2018 - 10:00  26.0°C  27.7°C  1018.8 hPa  78%  14.8 km/h   24.0 km/h  2%  0.01 mm/h  16.1km  89%  Mostly Cloudy 
 23/07/2018 - 11:00  27.5°C  30.1°C  1018.9 hPa  73%  17.0 km/h   25.2 km/h  2%  0.02 mm/h  16.1km  88%  Mostly Cloudy 
 23/07/2018 - 12:00  28.6°C  31.6°C  1018.6 hPa  69%  18.1 km/h   25.1 km/h  4%  0.04 mm/h  16.1km  88%  Humid and Mostly Cloudy 
 23/07/2018 - 13:00  29.8°C  33.2°C  1018.3 hPa  64%  19.0 km/h   24.4 km/h  5%  0.10 mm/h  16.1km  90%  Mostly Cloudy 
 23/07/2018 - 14:00  30.5°C  34.1°C  1018.0 hPa  61%  20.4 km/h   24.6 km/h  5%  0.17 mm/h  16.1km  92%  Mostly Cloudy 
 23/07/2018 - 15:00  30.6°C  34.2°C  1017.8 hPa  61%  21.5 km/h   26.0 km/h  6%  0.16 mm/h  16.1km  94%  Overcast 
 23/07/2018 - 16:00  30.5°C  34.0°C  1017.7 hPa  61%  22.3 km/h   28.2 km/h  7%  0.16 mm/h  16.1km  97%  Overcast 
 23/07/2018 - 17:00  29.8°C  33.1°C  1017.6 hPa  63%  22.7 km/h   31.0 km/h  9%  0.16 mm/h  16.1km  99%  Overcast 
 23/07/2018 - 18:00  29.0°C  31.9°C  1017.8 hPa  65%  22.1 km/h   35.0 km/h  12%  0.12 mm/h  16.1km  99%  Overcast 
 23/07/2018 - 19:00  28.1°C  30.5°C  1018.2 hPa  67%  21.4 km/h   39.6 km/h  14%  0.09 mm/h  16.1km  99%  Overcast 
 23/07/2018 - 20:00  26.9°C  28.9°C  1018.6 hPa  71%  20.9 km/h   43.3 km/h  16%  0.07 mm/h  16.1km  99%  Overcast 
 23/07/2018 - 21:00  26.0°C  26.6°C  1019.0 hPa  75%  20.1 km/h   45.6 km/h  16%  0.04 mm/h  16.1km  94%  Overcast 
 23/07/2018 - 22:00  25.3°C  25.9°C  1019.2 hPa  79%  18.9 km/h   46.9 km/h  15%  0.02 mm/h  16.1km  86%  Mostly Cloudy 
 23/07/2018 - 23:00  24.7°C  25.3°C  1019.5 hPa  82%  18.8 km/h   47.0 km/h  11%  0.05 mm/h  16.1km  81%  Mostly Cloudy 
 24/07/2018 - 00:00  24.3°C  25.0°C  1019.5 hPa  83%  18.7 km/h   45.1 km/h  9%  0.10 mm/h  16.1km  80%  Mostly Cloudy 
Test

 

Past weather and reports

Past weatherFind in this section the past weather conditions, weather archive, graphics, reports and statistics.

Current conditions

Current weather condition for MontrealAll you need to know about the current weather conditions for Montreal. Weather data is updated every 10 minutes.

Weather forecast

Current Montreal weatherSince 2004, celinium.com website has provided accurate weather forecast for Montreal's island.